Terminal Aerodrome Forecast
Issued by NWS Wilmington, OH

Home | Current Version | Previous Version | Text Only | Print | Product List | Glossary On
Versions: 1 2 3 4 5 6 7 8 9 10 11 12 13 14 15 16 17 18 19 20 21 22 23 24 25 26
699
FTUS41 KILN 300559 AAC
TAFILN
TAF AMD
KILN 300559Z 3006/0106 10008KT 4SM -SHRA BR VCTS BKN003 OVC050CB
     FM300800 14008KT P6SM SCT050 BKN120
     FM301200 18011KT P6SM BKN250 WS020/21035KT
     FM301500 20017G25KT P6SM SCT130 BKN250
     FM302200 19014G21KT P6SM SCT040 BKN120=

USA.gov is the U.S. government's official web portal to all federal, state and local government web resources and services.